createdAt,value
2024-04-18T00:15:14.562Z,31.55
2024-04-18T00:30:39.552Z,31.72
2024-04-18T00:46:04.529Z,31.91
2024-04-18T01:01:29.499Z,32.04
2024-04-18T01:16:54.442Z,31.95
2024-04-18T01:32:19.469Z,31.99
2024-04-18T01:47:44.562Z,32.30
2024-04-18T02:03:09.495Z,32.51
2024-04-18T02:18:35.477Z,32.66
2024-04-18T02:34:01.432Z,32.85
2024-04-18T02:49:26.445Z,32.96
2024-04-18T03:04:51.410Z,32.92
2024-04-18T03:20:16.411Z,32.72
2024-04-18T03:35:41.375Z,32.65
2024-04-18T03:51:06.356Z,32.82
2024-04-18T04:06:33.619Z,33.07
2024-04-18T04:21:56.512Z,33.22
2024-04-18T04:37:21.347Z,32.94
2024-04-18T04:52:46.457Z,32.69
2024-04-18T05:08:11.293Z,32.69
2024-04-18T05:23:36.266Z,32.76
2024-04-18T05:39:01.271Z,32.80
2024-04-18T05:54:26.475Z,33.16
2024-04-18T06:09:51.450Z,33.00
2024-04-18T06:25:16.305Z,32.94
2024-04-18T06:40:41.293Z,32.85
2024-04-18T06:56:06.270Z,32.85
2024-04-18T07:11:31.215Z,33.19
2024-04-18T07:26:57.127Z,32.28
2024-04-18T07:42:21.246Z,31.81
2024-04-18T07:57:46.835Z,32.24
2024-04-18T08:13:15.127Z,33.17
2024-04-18T08:28:36.195Z,32.27
2024-04-18T08:44:05.765Z,32.59
2024-04-18T08:59:26.300Z,31.53
2024-04-18T09:14:51.182Z,31.62
2024-04-18T09:30:16.181Z,31.27
2024-04-18T09:45:41.266Z,31.61
2024-04-18T10:01:06.202Z,31.16
2024-04-18T10:16:33.202Z,30.79
2024-04-18T10:31:58.092Z,30.79
2024-04-18T10:47:23.454Z,30.60
2024-04-18T11:02:48.086Z,30.77
2024-04-18T11:18:13.252Z,30.21
2024-04-18T11:33:38.198Z,30.33
2024-04-18T11:49:03.418Z,30.37
2024-04-18T12:04:28.336Z,29.81
2024-04-18T12:19:53.160Z,29.63
2024-04-18T12:35:18.105Z,29.28
2024-04-18T12:50:43.167Z,28.83
2024-04-18T13:06:08.137Z,28.45
2024-04-18T13:21:33.121Z,28.15
2024-04-18T13:36:58.032Z,28.69
2024-04-18T13:52:23.105Z,29.19
2024-04-18T14:07:48.038Z,29.40
2024-04-18T14:23:13.019Z,29.85
2024-04-18T14:38:38.065Z,29.23
2024-04-18T14:54:03.077Z,29.36
2024-04-18T15:09:57.055Z,29.11
2024-04-18T15:25:22.010Z,29.12
2024-04-18T15:40:46.934Z,29.13
2024-04-18T15:56:14.998Z,29.02
2024-04-18T16:11:36.972Z,29.51
2024-04-18T16:27:01.964Z,28.71
2024-04-18T16:42:26.963Z,28.85
2024-04-18T16:57:52.041Z,29.57
2024-04-18T17:13:17.001Z,29.56
2024-04-18T17:28:42.014Z,29.72
2024-04-18T17:44:07.735Z,30.26
2024-04-18T17:59:32.091Z,31.56
2024-04-18T18:14:57.010Z,31.80
2024-04-18T18:30:21.988Z,31.94
2024-04-18T18:45:46.999Z,32.36
2024-04-18T19:01:11.873Z,31.65
2024-04-18T19:16:36.929Z,31.36
2024-04-18T19:32:01.884Z,32.15
2024-04-18T19:47:27.209Z,32.19
2024-04-18T20:02:51.941Z,32.17
2024-04-18T20:18:17.065Z,32.14
2024-04-18T20:33:41.880Z,32.13
2024-04-18T20:49:06.947Z,32.11
2024-04-18T21:04:31.806Z,32.24
2024-04-18T21:19:56.858Z,31.89
2024-04-18T21:35:21.862Z,31.82
2024-04-18T21:50:46.808Z,31.72
2024-04-18T22:06:11.864Z,31.56
2024-04-18T22:21:37.402Z,31.09
2024-04-18T22:37:01.810Z,30.85
2024-04-18T22:52:26.799Z,30.66
2024-04-18T23:07:51.764Z,30.46
2024-04-18T23:23:16.826Z,30.34
2024-04-18T23:38:41.880Z,30.23
2024-04-18T23:54:06.816Z,30.18
